Hensley, Arkansas
Current Conditions -  °F | °C
As of 1:53 PM on Monday 24 Nov 2014 (Local Time) from KLIT Reporting Station
Few Clouds Few Clouds  
Wind Chill: 61°   Ceiling: Unl
Heat Index: 61°   Visibility: 10mi
Dew Point: 21°   Wind: 18mph
Humidity: 21%   Direction: 280°W
Pressure: 29.9"   Gusts: 23mph
Location:  34.51°N, 92.21°W
Report Text: KLIT 241953Z 28016G20KT 10SM FEW250 16/M06 A2990 RMK AO2 PK WND 29027/1854 SLP126 T01611061
Loading
Personal Weather Stations






























Interactive Weather Map New forecast layout! Learn more

10-Day Weather Forecast

Advertisements
Track Severe Weather on mobile